createdAt,value
2018-08-19T00:01:08.341Z,42.30
2018-08-19T00:03:39.353Z,41.83
2018-08-19T00:06:10.346Z,41.88
2018-08-19T00:08:41.346Z,42.84
2018-08-19T00:11:12.359Z,42.75
2018-08-19T00:13:43.373Z,42.33
2018-08-19T00:16:14.385Z,42.81
2018-08-19T00:18:45.405Z,43.70
2018-08-19T00:21:16.417Z,43.64
2018-08-19T00:23:49.525Z,43.21
2018-08-19T00:26:20.452Z,44.14
2018-08-19T00:28:51.453Z,43.58
2018-08-19T00:31:22.437Z,44.25
2018-08-19T00:33:54.405Z,44.14
2018-08-19T00:36:35.369Z,44.39
2018-08-19T00:39:09.553Z,44.17
2018-08-19T00:41:40.526Z,44.71
2018-08-19T00:44:11.482Z,44.10
2018-08-19T00:46:42.440Z,43.62
2018-08-19T00:49:14.985Z,44.56
2018-08-19T00:51:51.290Z,45.04
2018-08-19T00:54:21.404Z,44.74
2018-08-19T00:56:56.381Z,44.54
2018-08-19T00:59:29.296Z,44.77
2018-08-19T01:02:00.510Z,44.56
2018-08-19T01:04:31.575Z,44.63
2018-08-19T01:07:03.550Z,44.51
2018-08-19T01:09:34.476Z,46.09
2018-08-19T01:12:05.553Z,44.81
2018-08-19T01:14:37.557Z,44.96
2018-08-19T01:17:08.552Z,45.13
2018-08-19T01:19:39.509Z,45.75
2018-08-19T01:22:10.512Z,45.15
2018-08-19T01:24:41.515Z,45.73
2018-08-19T01:27:12.505Z,45.31
2018-08-19T01:29:45.513Z,46.26
2018-08-19T01:32:16.431Z,46.48
2018-08-19T01:34:47.501Z,46.20
2018-08-19T01:37:18.481Z,46.24
2018-08-19T01:39:49.386Z,46.04
2018-08-19T01:42:20.394Z,46.56
2018-08-19T01:44:51.423Z,46.01
2018-08-19T01:47:22.379Z,47.04
2018-08-19T01:49:53.458Z,47.07
2018-08-19T01:52:24.444Z,47.08
2018-08-19T01:54:55.478Z,47.11
2018-08-19T01:57:34.164Z,47.07
2018-08-19T02:00:05.640Z,47.20
2018-08-19T02:02:57.438Z,46.82
2018-08-19T02:05:28.530Z,46.67
2018-08-19T02:08:01.765Z,47.37
2018-08-19T02:10:34.751Z,47.25
2018-08-19T02:13:05.558Z,47.49
2018-08-19T02:15:36.529Z,46.95
2018-08-19T02:18:07.500Z,47.46
2018-08-19T02:20:41.418Z,47.00
2018-08-19T02:23:13.433Z,47.46
2018-08-19T02:25:47.432Z,47.36
2018-08-19T02:28:23.020Z,47.95
2018-08-19T02:30:59.327Z,47.56
2018-08-19T02:33:36.394Z,47.13
2018-08-19T02:36:09.388Z,47.31
2018-08-19T02:38:40.486Z,48.61
2018-08-19T02:41:11.530Z,48.51
2018-08-19T02:43:48.310Z,47.89
2018-08-19T02:46:19.373Z,47.94
2018-08-19T02:48:53.287Z,48.43
2018-08-19T02:51:23.400Z,48.23
2018-08-19T02:53:54.461Z,48.87
2018-08-19T02:56:25.473Z,50.92
2018-08-19T02:58:56.493Z,48.29
2018-08-19T03:01:27.510Z,49.14
2018-08-19T03:03:58.522Z,49.27
2018-08-19T03:06:29.488Z,48.54
2018-08-19T03:09:01.021Z,48.51
2018-08-19T03:11:32.378Z,48.78
2018-08-19T03:14:03.493Z,49.54
2018-08-19T03:16:36.523Z,48.80
2018-08-19T03:19:07.476Z,49.66
2018-08-19T03:21:38.494Z,48.69
2018-08-19T03:24:09.494Z,49.05
2018-08-19T03:26:40.501Z,48.93
2018-08-19T03:29:15.400Z,48.93
2018-08-19T03:31:49.696Z,49.65
2018-08-19T03:34:20.492Z,49.73
2018-08-19T03:36:51.485Z,49.33
2018-08-19T03:52:23.178Z,49.97
2018-08-19T03:54:54.366Z,50.53
2018-08-19T03:57:25.397Z,50.72
2018-08-19T03:59:56.468Z,50.84
2018-08-19T04:02:27.430Z,50.78
2018-08-19T04:04:58.472Z,51.07
2018-08-19T04:07:29.457Z,51.48
2018-08-19T04:10:00.406Z,51.30
2018-08-19T04:12:31.471Z,51.94
2018-08-19T04:15:02.457Z,52.27
2018-08-19T04:17:33.483Z,51.95
2018-08-19T04:20:04.562Z,52.43
2018-08-19T04:22:35.461Z,51.77
2018-08-19T04:25:06.524Z,52.39
2018-08-19T04:27:37.437Z,51.84
2018-08-19T04:30:08.475Z,51.80
2018-08-19T04:35:18.428Z,52.68
2018-08-19T04:37:49.483Z,53.41
2018-08-19T04:40:20.477Z,53.30
2018-08-19T04:42:51.509Z,54.02
2018-08-19T04:45:22.458Z,54.20
2018-08-19T04:47:53.447Z,54.65
2018-08-19T04:50:24.500Z,55.32
2018-08-19T04:52:55.478Z,56.02
2018-08-19T04:55:26.494Z,55.29
2018-08-19T04:57:57.474Z,56.62
2018-08-19T05:00:28.451Z,55.63
2018-08-19T05:02:59.554Z,56.13
2018-08-19T05:05:30.494Z,56.00
2018-08-19T05:08:01.552Z,56.45
2018-08-19T05:10:32.428Z,56.33
2018-08-19T05:13:03.471Z,56.14
2018-08-19T05:15:34.531Z,57.70
2018-08-19T05:18:05.510Z,56.95
2018-08-19T05:20:36.441Z,56.62
2018-08-19T05:23:08.351Z,56.54
2018-08-19T05:26:02.269Z,56.91
2018-08-19T05:28:32.477Z,56.79
2018-08-19T05:31:03.457Z,57.02
2018-08-19T05:33:34.472Z,56.29
2018-08-19T05:36:05.498Z,57.19
2018-08-19T05:38:36.469Z,56.50
2018-08-19T05:43:52.485Z,56.48
2018-08-19T05:46:23.480Z,57.38
2018-08-19T05:48:58.568Z,56.48
2018-08-19T05:51:29.472Z,56.35
2018-08-19T05:54:00.515Z,56.16
2018-08-19T05:56:31.473Z,56.04
2018-08-19T05:59:02.484Z,55.72
2018-08-19T06:01:33.429Z,55.82
2018-08-19T06:04:04.517Z,54.72
2018-08-19T06:06:35.450Z,55.11
2018-08-19T06:09:07.493Z,55.54
2018-08-19T06:11:38.456Z,54.74
2018-08-19T06:14:10.518Z,54.47
2018-08-19T06:16:41.486Z,53.80
2018-08-19T06:19:12.470Z,52.80
2018-08-19T06:21:43.510Z,54.17
2018-08-19T06:24:14.706Z,53.78
2018-08-19T06:26:46.623Z,53.41
2018-08-19T06:29:17.738Z,54.24
2018-08-19T06:31:49.426Z,54.36
2018-08-19T06:34:20.491Z,53.43
2018-08-19T06:36:51.479Z,54.07
2018-08-19T06:39:22.464Z,53.62
2018-08-19T06:41:53.465Z,51.63
2018-08-19T06:44:24.710Z,52.44
2018-08-19T06:46:55.593Z,51.73
2018-08-19T06:49:27.238Z,51.63
2018-08-19T06:51:58.381Z,50.32
2018-08-19T06:54:29.587Z,50.44
2018-08-19T06:57:00.668Z,50.08
2018-08-19T06:59:31.557Z,50.52
2018-08-19T07:02:02.545Z,50.86
2018-08-19T07:04:33.525Z,50.39
2018-08-19T07:07:04.658Z,50.13
2018-08-19T07:09:35.645Z,48.90
2018-08-19T07:12:14.483Z,50.39
2018-08-19T07:14:46.434Z,49.80
2018-08-19T07:17:18.394Z,49.43
2018-08-19T07:19:49.381Z,48.98
2018-08-19T07:22:22.405Z,48.88
2018-08-19T07:24:53.485Z,48.24
2018-08-19T07:27:24.484Z,48.07
2018-08-19T07:29:56.412Z,47.80
2018-08-19T07:32:27.482Z,48.35
2018-08-19T07:34:58.505Z,48.58
2018-08-19T07:37:29.477Z,48.26
2018-08-19T07:40:00.453Z,47.60
2018-08-19T07:42:31.786Z,47.61
2018-08-19T07:45:02.594Z,47.45
2018-08-19T07:47:33.529Z,46.98
2018-08-19T07:50:04.548Z,47.34
2018-08-19T07:52:35.510Z,47.28
2018-08-19T07:55:07.660Z,46.81
2018-08-19T07:57:42.548Z,47.57
2018-08-19T08:00:14.441Z,47.13
2018-08-19T08:02:45.566Z,45.94
2018-08-19T08:05:16.563Z,46.31
2018-08-19T08:07:49.465Z,46.00
2018-08-19T08:10:20.555Z,46.23
2018-08-19T08:12:57.665Z,46.46
2018-08-19T08:15:28.618Z,45.59
2018-08-19T08:17:59.561Z,44.38
2018-08-19T08:20:30.530Z,45.36
2018-08-19T08:23:18.184Z,45.14
2018-08-19T08:25:49.544Z,43.47
2018-08-19T08:28:20.688Z,44.54
2018-08-19T08:30:51.641Z,43.37
2018-08-19T08:33:22.611Z,42.88
2018-08-19T08:35:57.491Z,42.50
2018-08-19T08:38:28.563Z,41.47
2018-08-19T08:40:59.572Z,40.51
2018-08-19T08:43:30.559Z,41.03
2018-08-19T08:46:01.531Z,40.49
2018-08-19T08:48:34.550Z,39.40
2018-08-19T08:51:05.636Z,38.72
2018-08-19T08:53:40.450Z,38.17
2018-08-19T08:56:11.515Z,37.55
2018-08-19T08:58:42.493Z,36.28
2018-08-19T09:01:13.472Z,37.28
2018-08-19T09:03:44.474Z,36.41
2018-08-19T09:06:21.205Z,34.80
2018-08-19T09:08:52.399Z,36.13
2018-08-19T09:11:23.485Z,33.99
2018-08-19T09:13:55.278Z,33.97
2018-08-19T09:16:25.445Z,32.96
2018-08-19T09:18:56.508Z,33.78
2018-08-19T09:21:27.598Z,32.67
2018-08-19T09:23:58.500Z,32.54
2018-08-19T09:26:29.530Z,31.71
2018-08-19T09:29:00.559Z,30.83
2018-08-19T09:31:31.480Z,32.00
2018-08-19T09:34:02.465Z,30.50
2018-08-19T09:36:33.486Z,30.71
2018-08-19T09:39:06.445Z,31.22
2018-08-19T09:41:37.504Z,30.54
2018-08-19T09:44:08.521Z,29.39
2018-08-19T09:46:44.724Z,27.84
2018-08-19T09:49:15.718Z,28.36
2018-08-19T09:51:46.603Z,27.88
2018-08-19T09:54:21.374Z,28.02
2018-08-19T09:56:52.479Z,27.91
2018-08-19T09:59:23.506Z,26.65
2018-08-19T10:01:54.576Z,26.64
2018-08-19T10:04:26.426Z,28.33
2018-08-19T10:07:02.724Z,26.75
2018-08-19T10:09:33.587Z,27.07
2018-08-19T10:12:04.555Z,26.87
2018-08-19T10:14:35.559Z,26.51
2018-08-19T10:17:08.013Z,26.47
2018-08-19T10:19:39.354Z,25.83
2018-08-19T10:22:10.391Z,26.36
2018-08-19T10:24:41.473Z,26.58
2018-08-19T10:27:12.494Z,25.84
2018-08-19T10:29:43.474Z,25.79
2018-08-19T10:32:14.509Z,24.54
2018-08-19T10:34:46.581Z,24.67
2018-08-19T10:37:17.578Z,25.25
2018-08-19T10:39:48.496Z,24.39
2018-08-19T10:42:24.521Z,25.67
2018-08-19T10:44:55.491Z,25.05
2018-08-19T10:47:26.501Z,24.55
2018-08-19T10:50:02.649Z,24.47
2018-08-19T10:52:33.769Z,24.19
2018-08-19T10:55:04.601Z,25.25
2018-08-19T10:57:35.481Z,24.74
2018-08-19T11:00:16.405Z,23.48
2018-08-19T11:02:47.482Z,24.44
2018-08-19T11:05:18.525Z,24.62
2018-08-19T11:07:49.536Z,22.58
2018-08-19T11:10:24.308Z,22.47
2018-08-19T11:12:57.446Z,23.30
2018-08-19T11:15:46.398Z,22.37
2018-08-19T11:18:50.454Z,23.78
2018-08-19T11:21:30.393Z,23.17
2018-08-19T11:24:01.552Z,22.99
2018-08-19T11:26:32.515Z,22.93
2018-08-19T11:29:05.573Z,22.30
2018-08-19T11:31:39.266Z,22.50
2018-08-19T11:34:09.944Z,22.70
2018-08-19T11:36:43.838Z,21.99
2018-08-19T11:39:16.489Z,22.58
2018-08-19T11:41:47.473Z,22.26
2018-08-19T11:44:19.027Z,22.62
2018-08-19T11:46:50.310Z,22.49
2018-08-19T11:49:21.646Z,22.16
2018-08-19T11:51:59.401Z,22.25
2018-08-19T11:54:31.464Z,21.20
2018-08-19T11:57:06.402Z,22.38
2018-08-19T11:59:42.816Z,22.53
2018-08-19T12:02:25.447Z,20.79
2018-08-19T12:04:56.506Z,21.85
2018-08-19T12:07:27.533Z,21.94
2018-08-19T12:10:01.346Z,20.63
2018-08-19T12:12:48.188Z,22.55
2018-08-19T12:15:19.436Z,22.81
2018-08-19T12:17:50.682Z,22.91
2018-08-19T12:20:26.645Z,21.82
2018-08-19T12:22:57.519Z,21.51
2018-08-19T12:25:28.507Z,22.36
2018-08-19T12:28:00.304Z,21.70
2018-08-19T12:30:34.786Z,23.06
2018-08-19T12:33:24.588Z,21.50
2018-08-19T12:35:57.341Z,21.83
2018-08-19T12:38:28.729Z,21.75
2018-08-19T12:41:00.302Z,21.54
2018-08-19T12:43:31.422Z,21.79
2018-08-19T12:46:03.394Z,21.30
2018-08-19T12:48:34.498Z,21.36
2018-08-19T12:51:06.441Z,21.54
2018-08-19T12:53:39.606Z,21.07
2018-08-19T12:56:10.479Z,20.94
2018-08-19T12:58:41.495Z,21.11
2018-08-19T13:01:12.501Z,22.29
2018-08-19T13:03:43.493Z,21.53
2018-08-19T13:06:14.506Z,21.42
2018-08-19T13:08:45.505Z,21.57
2018-08-19T13:11:16.537Z,21.72
2018-08-19T13:13:47.501Z,21.92
2018-08-19T13:16:18.485Z,21.64
2018-08-19T13:18:49.531Z,21.87
2018-08-19T13:21:20.498Z,21.59
2018-08-19T13:23:51.465Z,21.13
2018-08-19T13:26:22.491Z,20.66
2018-08-19T13:28:55.661Z,20.69
2018-08-19T13:31:31.356Z,20.50
2018-08-19T13:34:03.030Z,21.31
2018-08-19T13:36:34.374Z,20.90
2018-08-19T13:39:07.621Z,21.00
2018-08-19T13:41:38.484Z,20.95
2018-08-19T13:44:09.464Z,20.88
2018-08-19T13:46:40.515Z,21.88
2018-08-19T13:49:11.481Z,20.53
2018-08-19T13:51:42.460Z,21.96
2018-08-19T13:54:13.522Z,21.40
2018-08-19T13:56:45.341Z,20.88
2018-08-19T13:59:17.032Z,21.84
2018-08-19T14:01:48.271Z,21.38
2018-08-19T14:04:18.403Z,21.18
2018-08-19T14:06:49.428Z,21.52
2018-08-19T14:09:21.502Z,21.49
2018-08-19T14:11:52.489Z,21.65
2018-08-19T14:14:23.480Z,21.56
2018-08-19T14:16:54.480Z,22.77
2018-08-19T14:19:25.439Z,21.26
2018-08-19T14:21:56.506Z,21.11
2018-08-19T14:24:27.436Z,21.48
2018-08-19T14:26:58.457Z,21.51
2018-08-19T14:29:30.245Z,22.27
2018-08-19T14:32:00.419Z,21.23
2018-08-19T14:34:31.454Z,20.87
2018-08-19T14:37:02.606Z,21.20
2018-08-19T14:39:33.492Z,21.24
2018-08-19T14:42:04.461Z,20.31
2018-08-19T14:47:15.538Z,20.79
2018-08-19T14:49:46.434Z,21.81
2018-08-19T14:52:17.488Z,21.66
2018-08-19T14:54:48.469Z,22.09
2018-08-19T14:57:19.521Z,20.77
2018-08-19T14:59:50.529Z,21.78
2018-08-19T15:02:21.537Z,20.97
2018-08-19T15:04:52.497Z,21.31
2018-08-19T15:07:23.481Z,20.71
2018-08-19T15:09:55.586Z,21.53
2018-08-19T15:12:27.449Z,21.36
2018-08-19T15:15:00.798Z,21.61
2018-08-19T15:17:31.556Z,21.17
2018-08-19T15:22:36.397Z,20.99
2018-08-19T15:25:07.485Z,20.69
2018-08-19T15:27:42.306Z,20.62
2018-08-19T15:30:17.242Z,21.15
2018-08-19T15:32:47.680Z,20.62
2018-08-19T15:35:18.497Z,21.27
2018-08-19T15:37:49.509Z,20.39
2018-08-19T15:40:37.425Z,20.27
2018-08-19T15:43:09.389Z,20.92
2018-08-19T15:45:40.687Z,21.66
2018-08-19T15:48:11.534Z,21.82
2018-08-19T15:50:42.477Z,21.89
2018-08-19T15:53:13.497Z,21.98
2018-08-19T15:55:44.446Z,21.33
2018-08-19T15:58:15.459Z,21.60
2018-08-19T16:00:46.408Z,22.22
2018-08-19T16:03:17.413Z,21.79
2018-08-19T16:05:48.433Z,22.86
2018-08-19T16:08:19.445Z,22.68
2018-08-19T16:10:50.393Z,22.16
2018-08-19T16:13:21.425Z,22.83
2018-08-19T16:15:52.457Z,22.18
2018-08-19T16:18:23.497Z,22.66
2018-08-19T16:20:58.352Z,23.04
2018-08-19T16:23:29.365Z,23.55
2018-08-19T16:26:00.530Z,23.33
2018-08-19T16:29:15.571Z,23.01
2018-08-19T16:31:46.648Z,23.65
2018-08-19T16:34:17.521Z,23.75
2018-08-19T16:36:48.528Z,23.58
2018-08-19T16:39:19.781Z,23.02
2018-08-19T16:41:50.555Z,23.20
2018-08-19T16:44:21.505Z,23.60
2018-08-19T16:46:52.501Z,23.40
2018-08-19T16:49:23.432Z,23.24
2018-08-19T16:51:54.498Z,23.45
2018-08-19T16:54:25.529Z,23.48
2018-08-19T16:56:56.540Z,22.98
2018-08-19T16:59:27.514Z,23.48
2018-08-19T17:01:58.494Z,23.95
2018-08-19T17:04:29.429Z,24.45
2018-08-19T17:07:00.418Z,23.85
2018-08-19T17:09:31.491Z,24.09
2018-08-19T17:12:03.736Z,25.24
2018-08-19T17:14:34.649Z,25.16
2018-08-19T17:17:05.510Z,24.52
2018-08-19T17:19:36.481Z,24.01
2018-08-19T17:22:09.829Z,23.74
2018-08-19T17:24:40.585Z,24.29
2018-08-19T17:27:13.207Z,24.54
2018-08-19T17:29:44.293Z,23.71
2018-08-19T17:32:15.349Z,23.65
2018-08-19T17:34:46.404Z,23.94
2018-08-19T17:37:17.450Z,23.86
2018-08-19T17:39:48.538Z,24.10
2018-08-19T17:42:19.457Z,24.81
2018-08-19T17:44:50.419Z,24.02
2018-08-19T17:47:21.462Z,24.14
2018-08-19T17:49:52.452Z,24.51
2018-08-19T17:52:23.461Z,25.21
2018-08-19T17:54:54.518Z,24.44
2018-08-19T17:57:25.568Z,24.74
2018-08-19T17:59:56.553Z,24.88
2018-08-19T18:02:27.496Z,25.31
2018-08-19T18:07:38.497Z,25.03
2018-08-19T18:10:14.410Z,25.64
2018-08-19T18:12:46.406Z,24.96
2018-08-19T18:15:17.506Z,25.08
2018-08-19T18:17:57.324Z,25.99
2018-08-19T18:20:34.661Z,26.07
2018-08-19T18:23:12.525Z,26.05
2018-08-19T18:25:47.022Z,25.88
2018-08-19T18:28:24.393Z,26.03
2018-08-19T18:31:14.586Z,25.45
2018-08-19T18:34:07.441Z,26.16
2018-08-19T18:36:38.485Z,26.80
2018-08-19T18:39:11.845Z,26.70
2018-08-19T18:41:47.293Z,26.89
2018-08-19T18:46:58.273Z,27.10
2018-08-19T18:49:29.366Z,27.92
2018-08-19T18:52:06.825Z,28.56
2018-08-19T18:57:22.472Z,29.59
2018-08-19T18:59:53.669Z,31.13
2018-08-19T19:02:24.518Z,30.97
2018-08-19T19:04:55.493Z,31.31
2018-08-19T19:07:26.515Z,31.61
2018-08-19T19:09:57.506Z,32.42
2018-08-19T19:12:28.542Z,32.97
2018-08-19T19:14:59.565Z,33.11
2018-08-19T19:17:30.533Z,32.73
2018-08-19T19:20:01.537Z,33.18
2018-08-19T19:22:32.524Z,33.68
2018-08-19T19:25:03.517Z,34.24
2018-08-19T19:27:34.513Z,34.79
2018-08-19T19:30:06.021Z,34.52
2018-08-19T19:32:37.424Z,34.72
2018-08-19T19:35:18.565Z,35.39
2018-08-19T19:37:50.404Z,34.88
2018-08-19T19:40:23.434Z,34.86
2018-08-19T19:42:54.524Z,35.43
2018-08-19T19:45:25.685Z,35.00
2018-08-19T19:50:42.019Z,35.66
2018-08-19T19:53:13.389Z,35.63
2018-08-19T19:55:44.550Z,35.12
2018-08-19T19:58:15.529Z,35.55
2018-08-19T20:00:56.361Z,35.85
2018-08-19T20:03:27.362Z,36.47
2018-08-19T20:05:58.414Z,36.15
2018-08-19T20:08:29.514Z,36.25
2018-08-19T20:11:00.470Z,37.08
2018-08-19T20:13:31.493Z,36.92
2018-08-19T20:16:02.486Z,37.48
2018-08-19T20:18:34.016Z,36.27
2018-08-19T20:21:10.844Z,37.11
2018-08-19T20:23:41.690Z,37.54
2018-08-19T20:26:12.577Z,37.15
2018-08-19T20:28:43.582Z,38.16
2018-08-19T20:31:15.218Z,37.87
2018-08-19T20:33:46.367Z,38.40
2018-08-19T20:36:17.508Z,37.35
2018-08-19T20:38:48.627Z,38.11
2018-08-19T20:41:20.834Z,38.29
2018-08-19T20:43:52.516Z,38.23
2018-08-19T20:46:23.638Z,38.45
2018-08-19T20:48:54.505Z,39.19
2018-08-19T20:51:25.610Z,38.70
2018-08-19T20:53:56.660Z,38.47
2018-08-19T20:56:27.599Z,39.39
2018-08-19T20:58:58.509Z,39.64
2018-08-19T21:01:29.678Z,39.47
2018-08-19T21:04:00.563Z,39.40
2018-08-19T21:06:31.503Z,39.41
2018-08-19T21:09:02.523Z,38.91
2018-08-19T21:11:33.497Z,39.05
2018-08-19T21:14:04.534Z,39.70
2018-08-19T21:16:35.495Z,39.06
2018-08-19T21:19:06.535Z,40.19
2018-08-19T21:21:37.465Z,40.32
2018-08-19T21:24:08.522Z,40.30
2018-08-19T21:26:41.604Z,39.46
2018-08-19T21:29:12.508Z,40.28
2018-08-19T21:31:43.522Z,39.95
2018-08-19T21:34:14.504Z,40.58
2018-08-19T21:36:45.467Z,40.55
2018-08-19T21:39:16.465Z,39.87
2018-08-19T21:41:54.426Z,40.45
2018-08-19T21:44:25.523Z,39.99
2018-08-19T21:46:56.541Z,40.64
2018-08-19T21:49:27.530Z,40.59
2018-08-19T21:51:58.524Z,40.62
2018-08-19T21:54:29.514Z,41.02
2018-08-19T21:57:00.514Z,41.80
2018-08-19T21:59:31.510Z,40.52
2018-08-19T22:02:02.495Z,40.71
2018-08-19T22:04:33.535Z,41.79
2018-08-19T22:07:04.512Z,41.77
2018-08-19T22:09:39.426Z,41.17
2018-08-19T22:12:10.505Z,41.43
2018-08-19T22:14:41.521Z,41.61
2018-08-19T22:17:12.557Z,41.66
2018-08-19T22:19:43.560Z,41.44
2018-08-19T22:22:14.505Z,41.92
2018-08-19T22:24:45.496Z,42.17
2018-08-19T22:27:18.215Z,42.28
2018-08-19T22:29:50.380Z,42.63
2018-08-19T22:32:21.475Z,41.95
2018-08-19T22:34:52.477Z,42.62
2018-08-19T22:37:23.528Z,43.30
2018-08-19T22:39:54.580Z,43.05
2018-08-19T22:42:25.513Z,42.59
2018-08-19T22:44:56.494Z,43.72
2018-08-19T22:47:27.466Z,43.48
2018-08-19T22:50:01.012Z,43.84
2018-08-19T22:52:32.305Z,42.98
2018-08-19T22:55:03.376Z,43.57
2018-08-19T22:57:34.468Z,43.97
2018-08-19T23:00:08.291Z,43.87
2018-08-19T23:02:39.332Z,44.23
2018-08-19T23:05:10.361Z,44.68
2018-08-19T23:07:41.374Z,43.53
2018-08-19T23:10:12.505Z,44.46
2018-08-19T23:12:43.554Z,43.79
2018-08-19T23:15:37.459Z,44.37
2018-08-19T23:18:08.744Z,44.92
2018-08-19T23:20:39.575Z,45.31
2018-08-19T23:23:10.490Z,45.03
2018-08-19T23:25:41.441Z,46.37
2018-08-19T23:28:12.412Z,46.88
2018-08-19T23:30:43.465Z,47.29
2018-08-19T23:33:14.453Z,46.73
2018-08-19T23:35:45.469Z,48.36
2018-08-19T23:38:16.800Z,47.51
2018-08-19T23:40:47.661Z,48.00
2018-08-19T23:43:18.693Z,47.34
2018-08-19T23:45:49.557Z,47.31
2018-08-19T23:48:20.479Z,47.11
2018-08-19T23:50:51.424Z,47.64
2018-08-19T23:53:22.386Z,47.45
2018-08-19T23:55:53.481Z,47.59
2018-08-19T23:58:24.436Z,48.19
